createdAt,value
2022-09-23T00:01:07.494Z,13.60
2022-09-23T00:03:35.178Z,13.50
2022-09-23T00:06:05.004Z,13.40
2022-09-23T00:08:31.699Z,13.40
2022-09-23T00:11:09.117Z,13.40
2022-09-23T00:13:37.114Z,13.40
2022-09-23T00:16:05.903Z,13.30
2022-09-23T00:18:33.087Z,13.30
2022-09-23T00:21:05.314Z,13.30
2022-09-23T00:23:32.446Z,13.30
2022-09-23T00:26:01.181Z,13.20
2022-09-23T00:28:28.046Z,13.20
2022-09-23T00:30:54.811Z,13.20
2022-09-23T00:33:21.634Z,13.20
2022-09-23T00:35:49.728Z,13.20
2022-09-23T00:38:17.107Z,13.20
2022-09-23T00:40:46.118Z,13.20
2022-09-23T00:43:17.543Z,13.20
2022-09-23T00:45:50.884Z,13.20
2022-09-23T00:48:21.847Z,13.20
2022-09-23T00:50:53.416Z,13.10
2022-09-23T00:53:23.929Z,13.10
2022-09-23T00:55:58.234Z,13.10
2022-09-23T00:58:30.920Z,13.00
2022-09-23T01:01:00.499Z,13.00
2022-09-23T01:03:28.053Z,13.00
2022-09-23T01:05:55.574Z,13.00
2022-09-23T01:08:23.847Z,13.00
2022-09-23T01:11:10.115Z,13.00
2022-09-23T01:13:42.966Z,12.90
2022-09-23T01:16:37.542Z,12.90
2022-09-23T01:19:04.103Z,12.90
2022-09-23T01:21:54.719Z,12.90
2022-09-23T01:25:00.049Z,12.90
2022-09-23T01:27:48.438Z,12.90
2022-09-23T01:30:31.880Z,12.80
2022-09-23T01:33:09.298Z,12.80
2022-09-23T01:36:04.584Z,12.80
2022-09-23T01:38:40.057Z,12.80
2022-09-23T01:41:37.772Z,12.80
2022-09-23T01:44:12.024Z,12.80
2022-09-23T01:46:48.237Z,12.80
2022-09-23T01:49:25.340Z,12.80
2022-09-23T01:52:08.051Z,12.70
2022-09-23T01:54:43.677Z,12.70
2022-09-23T01:57:18.199Z,12.70
2022-09-23T01:59:55.866Z,12.70
2022-09-23T02:02:35.382Z,12.70
2022-09-23T02:05:14.764Z,12.60
2022-09-23T02:07:50.887Z,12.60
2022-09-23T02:10:27.095Z,12.60
2022-09-23T02:13:00.448Z,12.60
2022-09-23T02:15:34.946Z,12.60
2022-09-23T02:18:12.952Z,12.60
2022-09-23T02:20:40.125Z,12.50
2022-09-23T02:23:21.128Z,12.50
2022-09-23T02:26:08.721Z,12.50
2022-09-23T02:28:46.690Z,12.50
2022-09-23T02:31:21.526Z,12.50
2022-09-23T02:34:15.556Z,12.40
2022-09-23T02:36:49.517Z,12.40
2022-09-23T02:39:18.474Z,12.40
2022-09-23T02:42:14.783Z,12.40
2022-09-23T02:44:41.423Z,12.40
2022-09-23T02:47:08.266Z,12.40
2022-09-23T02:49:36.439Z,12.40
2022-09-23T02:52:05.705Z,12.40
2022-09-23T02:54:34.020Z,12.30
2022-09-23T02:57:03.651Z,12.30
2022-09-23T02:59:30.779Z,12.30
2022-09-23T03:02:04.457Z,12.30
2022-09-23T03:04:58.412Z,12.30
2022-09-23T03:07:54.041Z,12.30
2022-09-23T03:10:41.194Z,12.20
2022-09-23T03:13:19.404Z,12.20
2022-09-23T03:15:51.362Z,12.20
2022-09-23T03:18:31.598Z,12.20
2022-09-23T03:21:03.611Z,12.20
2022-09-23T03:23:35.673Z,12.10
2022-09-23T03:26:12.186Z,12.10
2022-09-23T03:28:43.145Z,12.10
2022-09-23T03:31:14.589Z,12.10
2022-09-23T03:33:47.031Z,12.10
2022-09-23T03:36:35.931Z,12.10
2022-09-23T03:39:21.877Z,12.10
2022-09-23T03:41:52.424Z,12.10
2022-09-23T03:44:21.268Z,12.10
2022-09-23T03:46:50.670Z,12.10
2022-09-23T03:49:27.232Z,12.10
2022-09-23T03:51:55.335Z,12.10
2022-09-23T03:54:22.235Z,12.00
2022-09-23T03:56:48.953Z,12.00
2022-09-23T03:59:16.092Z,12.00
2022-09-23T04:01:43.129Z,12.00
2022-09-23T04:04:10.354Z,12.00
2022-09-23T04:06:37.056Z,12.00
2022-09-23T04:09:03.780Z,11.90
2022-09-23T04:11:30.586Z,11.90
2022-09-23T04:13:57.255Z,11.90
2022-09-23T04:16:24.538Z,11.90
2022-09-23T04:18:51.374Z,11.90
2022-09-23T04:21:19.057Z,11.90
2022-09-23T04:23:48.628Z,11.90
2022-09-23T04:26:15.330Z,11.90
2022-09-23T04:28:41.992Z,11.90
2022-09-23T04:31:09.858Z,11.90
2022-09-23T04:33:37.515Z,11.80
2022-09-23T04:36:04.332Z,11.90
2022-09-23T04:38:31.100Z,11.80
2022-09-23T04:40:57.670Z,11.80
2022-09-23T04:43:24.316Z,11.80
2022-09-23T04:46:02.171Z,11.80
2022-09-23T04:48:28.913Z,11.80
2022-09-23T04:51:02.174Z,11.70
2022-09-23T04:53:29.252Z,11.70
2022-09-23T04:56:04.208Z,11.70
2022-09-23T04:58:31.082Z,11.70
2022-09-23T05:01:00.589Z,11.70
2022-09-23T05:03:30.127Z,11.70
2022-09-23T05:05:59.856Z,11.70
2022-09-23T05:08:26.423Z,11.70
2022-09-23T05:10:58.056Z,11.70
2022-09-23T05:13:24.756Z,11.60
2022-09-23T05:16:01.170Z,11.60
2022-09-23T05:18:32.201Z,11.60
2022-09-23T05:20:59.124Z,11.60
2022-09-23T05:23:27.112Z,11.60
2022-09-23T05:26:05.901Z,11.60
2022-09-23T05:28:33.261Z,11.60
2022-09-23T05:31:04.207Z,11.60
2022-09-23T05:33:32.105Z,11.60
2022-09-23T05:35:58.956Z,11.60
2022-09-23T05:38:25.812Z,11.60
2022-09-23T05:41:00.026Z,11.60
2022-09-23T05:43:27.035Z,11.60
2022-09-23T05:46:12.029Z,11.60
2022-09-23T05:48:39.778Z,11.60
2022-09-23T05:51:13.244Z,11.70
2022-09-23T05:53:41.574Z,11.70
2022-09-23T05:56:08.236Z,11.70
2022-09-23T05:58:35.525Z,11.70
2022-09-23T06:01:20.964Z,11.70
2022-09-23T06:03:49.020Z,11.70
2022-09-23T06:06:20.729Z,11.70
2022-09-23T06:08:47.776Z,11.70
2022-09-23T06:11:14.931Z,11.80
2022-09-23T06:13:41.788Z,11.80
2022-09-23T06:16:13.726Z,11.80
2022-09-23T06:18:45.213Z,11.80
2022-09-23T06:21:16.707Z,11.90
2022-09-23T06:23:44.328Z,11.80
2022-09-23T06:26:13.392Z,11.90
2022-09-23T06:28:41.591Z,11.90
2022-09-23T06:31:13.877Z,11.90
2022-09-23T06:33:42.553Z,11.90
2022-09-23T06:36:10.247Z,11.90
2022-09-23T06:38:41.379Z,12.00
2022-09-23T06:41:08.197Z,12.00
2022-09-23T06:43:34.923Z,12.00
2022-09-23T06:46:06.158Z,12.00
2022-09-23T06:48:36.157Z,12.00
2022-09-23T06:51:07.081Z,12.00
2022-09-23T06:53:34.127Z,12.10
2022-09-23T06:56:11.359Z,12.10
2022-09-23T06:58:39.966Z,12.10
2022-09-23T07:01:12.787Z,12.10
2022-09-23T07:03:39.681Z,12.20
2022-09-23T07:06:07.993Z,12.20
2022-09-23T07:08:35.996Z,12.20
2022-09-23T07:11:05.704Z,12.20
2022-09-23T07:13:33.460Z,12.20
2022-09-23T07:16:01.984Z,12.30
2022-09-23T07:18:36.792Z,12.30
2022-09-23T07:21:16.022Z,12.30
2022-09-23T07:23:53.495Z,12.40
2022-09-23T07:26:20.796Z,12.40
2022-09-23T07:28:47.651Z,12.40
2022-09-23T07:31:24.918Z,12.40
2022-09-23T07:33:57.892Z,12.40
2022-09-23T07:36:27.878Z,12.50
2022-09-23T07:39:00.496Z,12.50
2022-09-23T07:41:28.927Z,12.50
2022-09-23T07:43:58.973Z,12.60
2022-09-23T07:46:27.661Z,12.60
2022-09-23T07:48:54.648Z,12.70
2022-09-23T07:51:41.239Z,12.80
2022-09-23T07:54:11.337Z,12.80
2022-09-23T07:56:38.213Z,12.80
2022-09-23T07:59:08.565Z,12.90
2022-09-23T08:01:41.459Z,12.90
2022-09-23T08:04:14.808Z,12.90
2022-09-23T08:06:43.448Z,13.00
2022-09-23T08:09:10.956Z,13.00
2022-09-23T08:11:41.784Z,13.00
2022-09-23T08:14:09.957Z,13.10
2022-09-23T08:16:37.146Z,13.10
2022-09-23T08:21:32.023Z,13.20
2022-09-23T08:23:58.761Z,13.10
2022-09-23T08:26:25.854Z,13.20
2022-09-23T08:28:56.820Z,13.20
2022-09-23T08:31:24.023Z,13.20
2022-09-23T08:33:58.323Z,13.20
2022-09-23T08:36:26.163Z,13.20
2022-09-23T08:38:53.291Z,13.20
2022-09-23T08:41:58.938Z,13.30
2022-09-23T08:44:27.643Z,13.30
2022-09-23T08:47:00.026Z,13.40
2022-09-23T08:49:51.822Z,13.40
2022-09-23T08:52:28.156Z,13.40
2022-09-23T08:54:55.675Z,13.40
2022-09-23T08:58:23.317Z,13.40
2022-09-23T09:00:42.264Z,13.50
2022-09-23T09:03:23.583Z,13.50
2022-09-23T09:05:54.471Z,13.60
2022-09-23T09:08:31.270Z,13.70
2022-09-23T09:10:58.388Z,13.70
2022-09-23T09:13:34.584Z,13.80
2022-09-23T09:16:41.830Z,13.80
2022-09-23T09:19:19.030Z,13.90
2022-09-23T09:21:50.711Z,13.90
2022-09-23T09:24:21.816Z,13.90
2022-09-23T09:26:48.656Z,14.00
2022-09-23T09:29:41.623Z,14.00
2022-09-23T09:32:48.395Z,14.10
2022-09-23T09:35:38.855Z,14.10
2022-09-23T09:38:08.299Z,14.20
2022-09-23T09:40:35.247Z,14.20
2022-09-23T09:43:05.469Z,14.20
2022-09-23T09:46:06.644Z,14.30
2022-09-23T09:48:53.704Z,14.30
2022-09-23T09:51:23.018Z,14.40
2022-09-23T09:53:52.829Z,14.40
2022-09-23T09:56:32.782Z,14.50
2022-09-23T09:59:08.198Z,14.50
2022-09-23T10:01:35.423Z,14.50
2022-09-23T10:04:05.415Z,14.50
2022-09-23T10:06:35.320Z,14.60
2022-09-23T10:09:01.972Z,14.60
2022-09-23T10:11:29.748Z,14.60
2022-09-23T10:14:19.092Z,14.70
2022-09-23T10:16:48.795Z,14.70
2022-09-23T10:19:27.187Z,14.70
2022-09-23T10:21:56.985Z,14.80
2022-09-23T10:24:32.586Z,14.80
2022-09-23T10:27:02.070Z,14.80
2022-09-23T10:29:42.465Z,14.90
2022-09-23T10:32:38.003Z,15.00
2022-09-23T10:35:08.909Z,15.00
2022-09-23T10:37:56.345Z,15.00
2022-09-23T10:40:53.407Z,15.00
2022-09-23T10:43:44.966Z,15.10
2022-09-23T10:46:42.130Z,15.10
2022-09-23T10:49:27.566Z,15.20
2022-09-23T10:52:22.196Z,15.20
2022-09-23T10:55:14.348Z,15.30
2022-09-23T10:58:04.256Z,15.30
2022-09-23T11:00:51.775Z,15.30
2022-09-23T11:03:27.323Z,15.20
2022-09-23T11:06:37.155Z,15.30
2022-09-23T11:09:22.307Z,15.30
2022-09-23T11:11:59.848Z,15.40
2022-09-23T11:14:40.775Z,15.40
2022-09-23T11:17:14.618Z,15.50
2022-09-23T11:20:13.215Z,15.50
2022-09-23T11:23:10.871Z,15.60
2022-09-23T11:26:07.821Z,15.60
2022-09-23T11:29:02.567Z,15.60
2022-09-23T11:31:37.288Z,15.60
2022-09-23T11:34:30.938Z,15.60
2022-09-23T11:37:12.788Z,15.70
2022-09-23T11:39:46.810Z,15.80
2022-09-23T11:42:25.057Z,15.80
2022-09-23T11:45:18.913Z,15.90
2022-09-23T11:47:51.979Z,15.90
2022-09-23T11:50:41.835Z,15.90
2022-09-23T11:53:37.674Z,15.90
2022-09-23T11:56:35.004Z,15.90
2022-09-23T11:59:21.237Z,15.90
2022-09-23T12:02:08.049Z,15.90
2022-09-23T12:04:54.781Z,16.00
2022-09-23T12:07:33.089Z,16.10
2022-09-23T12:10:06.958Z,16.10
2022-09-23T12:12:48.810Z,16.10
2022-09-23T12:15:21.728Z,16.20
2022-09-23T12:18:02.890Z,16.30
2022-09-23T12:20:42.518Z,16.50
2022-09-23T12:23:34.948Z,16.60
2022-09-23T12:26:09.264Z,16.50
2022-09-23T12:28:45.861Z,16.50
2022-09-23T12:31:33.055Z,16.50
2022-09-23T12:34:08.979Z,16.50
2022-09-23T12:36:36.275Z,16.50
2022-09-23T12:39:17.134Z,16.40
2022-09-23T12:41:56.905Z,16.50
2022-09-23T12:44:36.848Z,16.50
2022-09-23T12:47:21.013Z,16.40
2022-09-23T12:49:48.465Z,16.30
2022-09-23T12:52:17.971Z,16.30
2022-09-23T12:54:49.933Z,16.30
2022-09-23T12:57:34.762Z,16.30
2022-09-23T13:00:11.169Z,16.40
2022-09-23T13:02:39.475Z,16.40
2022-09-23T13:05:35.354Z,16.40
2022-09-23T13:08:10.343Z,16.50
2022-09-23T13:10:49.449Z,16.50
2022-09-23T13:13:24.243Z,16.60
2022-09-23T13:15:53.990Z,16.80
2022-09-23T13:18:20.588Z,16.90
2022-09-23T13:20:52.284Z,17.00
2022-09-23T13:23:28.715Z,17.20
2022-09-23T13:26:02.269Z,17.30
2022-09-23T13:28:37.492Z,17.40
2022-09-23T13:31:07.091Z,17.40
2022-09-23T13:33:47.240Z,17.70
2022-09-23T13:36:16.264Z,17.90
2022-09-23T13:38:43.533Z,17.90
2022-09-23T13:41:12.143Z,17.80
2022-09-23T13:43:43.384Z,17.90
2022-09-23T13:46:18.418Z,17.80
2022-09-23T13:48:47.459Z,17.90
2022-09-23T13:51:35.437Z,18.00
2022-09-23T13:54:05.127Z,18.00
2022-09-23T13:56:33.690Z,18.00
2022-09-23T13:59:31.073Z,18.00
2022-09-23T14:02:15.672Z,18.30
2022-09-23T14:04:43.075Z,18.40
2022-09-23T14:07:13.929Z,18.50
2022-09-23T14:09:48.949Z,18.70
2022-09-23T14:12:21.939Z,18.70
2022-09-23T14:14:51.650Z,18.70
2022-09-23T14:17:20.783Z,19.00
2022-09-23T14:19:48.514Z,19.40
2022-09-23T14:22:29.535Z,19.90
2022-09-23T14:24:57.347Z,20.20
2022-09-23T14:27:30.601Z,20.50
2022-09-23T14:29:58.706Z,20.40
2022-09-23T14:32:28.751Z,20.40
2022-09-23T14:35:03.474Z,20.40
2022-09-23T14:38:00.603Z,20.30
2022-09-23T14:40:34.391Z,20.20
2022-09-23T14:43:17.557Z,20.30
2022-09-23T14:45:50.578Z,20.60
2022-09-23T14:48:22.515Z,20.70
2022-09-23T14:51:01.098Z,20.70
2022-09-23T14:53:54.137Z,20.90
2022-09-23T14:56:22.853Z,20.80
2022-09-23T14:59:00.560Z,20.90
2022-09-23T15:01:37.262Z,20.80
2022-09-23T15:04:21.902Z,20.90
2022-09-23T15:06:55.773Z,21.00
2022-09-23T15:09:28.742Z,21.30
2022-09-23T15:12:20.931Z,21.20
2022-09-23T15:14:56.542Z,21.10
2022-09-23T15:17:23.095Z,21.10
2022-09-23T15:20:33.767Z,21.00
2022-09-23T15:23:01.168Z,21.10
2022-09-23T15:25:35.951Z,21.00
2022-09-23T15:28:08.659Z,20.90
2022-09-23T15:30:36.566Z,20.80
2022-09-23T15:33:03.738Z,20.80
2022-09-23T15:35:32.176Z,20.90
2022-09-23T15:38:01.648Z,21.20
2022-09-23T15:40:31.546Z,21.50
2022-09-23T15:43:01.420Z,21.60
2022-09-23T15:45:33.656Z,21.70
2022-09-23T15:48:07.281Z,22.10
2022-09-23T15:50:37.999Z,22.30
2022-09-23T15:53:05.932Z,22.40
2022-09-23T15:55:33.696Z,22.50
2022-09-23T15:58:01.126Z,22.50
2022-09-23T16:00:27.857Z,22.40
2022-09-23T16:02:54.646Z,22.40
2022-09-23T16:05:39.204Z,22.10
2022-09-23T16:08:09.312Z,22.00
2022-09-23T16:10:37.432Z,22.10
2022-09-23T16:13:06.704Z,22.20
2022-09-23T16:15:34.079Z,22.30
2022-09-23T16:18:01.312Z,22.30
2022-09-23T16:20:29.959Z,22.30
2022-09-23T16:23:03.132Z,22.20
2022-09-23T16:25:31.815Z,21.80
2022-09-23T16:27:58.728Z,21.60
2022-09-23T16:30:29.686Z,21.40
2022-09-23T16:32:56.919Z,21.40
2022-09-23T16:35:25.847Z,21.30
2022-09-23T16:37:52.765Z,21.10
2022-09-23T16:40:22.525Z,21.00
2022-09-23T16:42:52.074Z,20.90
2022-09-23T16:45:22.235Z,20.80
2022-09-23T16:47:51.055Z,20.70
2022-09-23T16:50:20.181Z,20.60
2022-09-23T16:52:46.915Z,20.40
2022-09-23T16:55:17.534Z,20.30
2022-09-23T16:57:44.165Z,20.20
2022-09-23T17:00:33.874Z,20.10
2022-09-23T17:03:20.256Z,20.00
2022-09-23T17:05:48.945Z,19.90
2022-09-23T17:08:17.055Z,19.80
2022-09-23T17:10:45.633Z,19.80
2022-09-23T17:13:16.638Z,19.70
2022-09-23T17:15:44.058Z,19.60
2022-09-23T17:18:10.753Z,19.50
2022-09-23T17:20:38.668Z,19.50
2022-09-23T17:23:06.003Z,19.40
2022-09-23T17:25:34.012Z,19.30
2022-09-23T17:28:00.942Z,19.30
2022-09-23T17:30:29.445Z,19.30
2022-09-23T17:32:56.028Z,19.30
2022-09-23T17:35:22.802Z,19.30
2022-09-23T17:37:50.028Z,19.20
2022-09-23T17:40:16.819Z,19.10
2022-09-23T17:42:43.520Z,19.10
2022-09-23T17:45:12.832Z,19.10
2022-09-23T17:47:41.659Z,19.10
2022-09-23T17:50:08.886Z,19.00
2022-09-23T17:52:35.486Z,18.90
2022-09-23T17:55:02.224Z,18.80
2022-09-23T17:57:28.974Z,18.70
2022-09-23T17:59:56.204Z,18.60
2022-09-23T18:02:23.173Z,18.50
2022-09-23T18:04:49.837Z,18.40
2022-09-23T18:07:16.706Z,18.30
2022-09-23T18:09:43.522Z,18.20
2022-09-23T18:12:10.245Z,18.20
2022-09-23T18:14:36.846Z,18.10
2022-09-23T18:17:03.573Z,18.00
2022-09-23T18:19:30.227Z,17.90
2022-09-23T18:21:57.355Z,17.90
2022-09-23T18:24:33.350Z,17.90
2022-09-23T18:27:01.283Z,17.80
2022-09-23T18:29:28.733Z,17.80
2022-09-23T18:31:55.700Z,17.70
2022-09-23T18:34:22.478Z,17.70
2022-09-23T18:36:49.183Z,17.70
2022-09-23T18:39:15.992Z,17.60
2022-09-23T18:41:42.931Z,17.60
2022-09-23T18:44:10.072Z,17.60
2022-09-23T18:46:37.054Z,17.50
2022-09-23T18:49:22.677Z,17.50
2022-09-23T18:51:57.339Z,17.50
2022-09-23T18:54:27.583Z,17.50
2022-09-23T18:56:55.357Z,17.50
2022-09-23T18:59:25.193Z,17.40
2022-09-23T19:01:54.934Z,17.40
2022-09-23T19:04:23.379Z,17.40
2022-09-23T19:06:50.111Z,17.30
2022-09-23T19:09:17.929Z,17.30
2022-09-23T19:11:44.921Z,17.30
2022-09-23T19:14:12.274Z,17.30
2022-09-23T19:16:40.841Z,17.20
2022-09-23T19:19:08.457Z,17.20
2022-09-23T19:21:35.827Z,17.10
2022-09-23T19:24:06.020Z,17.10
2022-09-23T19:26:38.447Z,17.00
2022-09-23T19:29:09.776Z,17.00
2022-09-23T19:31:40.504Z,17.00
2022-09-23T19:34:13.128Z,16.90
2022-09-23T19:36:42.230Z,16.90
2022-09-23T19:39:14.815Z,16.80
2022-09-23T19:41:41.451Z,16.80
2022-09-23T19:44:08.138Z,16.80
2022-09-23T19:46:41.836Z,16.80
2022-09-23T19:49:08.613Z,16.70
2022-09-23T19:51:35.709Z,16.70
2022-09-23T19:54:04.186Z,16.70
2022-09-23T19:56:31.933Z,16.70
2022-09-23T19:58:59.427Z,16.60
2022-09-23T20:01:27.691Z,16.60
2022-09-23T20:03:54.402Z,16.60
2022-09-23T20:06:21.766Z,16.60
2022-09-23T20:08:49.362Z,16.60
2022-09-23T20:11:26.230Z,16.60
2022-09-23T20:14:01.007Z,16.60
2022-09-23T20:16:32.007Z,16.50
2022-09-23T20:19:00.139Z,16.50
2022-09-23T20:21:28.293Z,16.40
2022-09-23T20:23:55.362Z,16.40
2022-09-23T20:26:40.734Z,16.40
2022-09-23T20:29:08.853Z,16.30
2022-09-23T20:31:35.676Z,16.30
2022-09-23T20:34:05.443Z,16.30
2022-09-23T20:36:33.213Z,16.30
2022-09-23T20:39:01.917Z,16.30
2022-09-23T20:41:31.171Z,16.30
2022-09-23T20:44:02.283Z,16.20
2022-09-23T20:46:29.981Z,16.20
2022-09-23T20:48:56.990Z,16.20
2022-09-23T20:51:24.750Z,16.20
2022-09-23T20:53:52.813Z,16.20
2022-09-23T20:56:20.938Z,16.10
2022-09-23T20:58:48.493Z,16.10
2022-09-23T21:01:15.719Z,16.10
2022-09-23T21:03:45.052Z,16.30
2022-09-23T21:06:14.137Z,16.10
2022-09-23T21:08:42.388Z,16.10
2022-09-23T21:11:15.092Z,16.00
2022-09-23T21:13:47.006Z,16.00
2022-09-23T21:16:18.046Z,16.00
2022-09-23T21:18:46.753Z,16.00
2022-09-23T21:21:19.339Z,16.00
2022-09-23T21:23:46.622Z,16.00
2022-09-23T21:26:17.716Z,15.90
2022-09-23T21:28:46.300Z,15.90
2022-09-23T21:31:25.852Z,15.90
2022-09-23T21:33:53.774Z,15.90
2022-09-23T21:36:20.517Z,15.90
2022-09-23T21:38:47.421Z,15.90
2022-09-23T21:41:14.095Z,15.90
2022-09-23T21:43:40.900Z,15.80
2022-09-23T21:46:10.165Z,15.80
2022-09-23T21:48:41.025Z,15.80
2022-09-23T21:51:28.416Z,15.80
2022-09-23T21:53:57.133Z,15.80
2022-09-23T21:56:33.009Z,15.80
2022-09-23T21:58:59.895Z,15.70
2022-09-23T22:01:33.505Z,15.70
2022-09-23T22:04:08.215Z,15.70
2022-09-23T22:06:38.009Z,15.70
2022-09-23T22:09:10.354Z,15.60
2022-09-23T22:11:57.515Z,15.60
2022-09-23T22:14:25.533Z,15.60
2022-09-23T22:16:57.385Z,15.60
2022-09-23T22:19:26.586Z,15.60
2022-09-23T22:21:53.890Z,15.50
2022-09-23T22:24:20.491Z,15.50
2022-09-23T22:26:47.305Z,15.50
2022-09-23T22:29:54.290Z,15.40
2022-09-23T22:32:40.366Z,15.40
2022-09-23T22:35:25.225Z,15.40
2022-09-23T22:37:51.812Z,15.40
2022-09-23T22:40:18.560Z,15.40
2022-09-23T22:42:45.792Z,15.40
2022-09-23T22:45:13.673Z,15.40
2022-09-23T22:47:44.027Z,15.40
2022-09-23T22:50:11.274Z,15.40
2022-09-23T22:52:37.992Z,15.40
2022-09-23T22:55:07.803Z,15.40
2022-09-23T22:57:34.564Z,15.40
2022-09-23T23:00:01.335Z,15.40
2022-09-23T23:02:28.002Z,15.30
2022-09-23T23:04:56.055Z,15.40
2022-09-23T23:07:22.623Z,15.30
2022-09-23T23:09:50.383Z,15.30
2022-09-23T23:12:18.832Z,15.30
2022-09-23T23:14:46.264Z,15.30
2022-09-23T23:17:12.905Z,15.20
2022-09-23T23:19:39.641Z,15.20
2022-09-23T23:22:06.248Z,15.20
2022-09-23T23:24:32.842Z,15.20
2022-09-23T23:26:59.537Z,15.20
2022-09-23T23:29:26.117Z,15.20
2022-09-23T23:31:52.812Z,15.10
2022-09-23T23:34:20.924Z,15.10
2022-09-23T23:36:53.444Z,15.10
2022-09-23T23:39:24.620Z,15.00
2022-09-23T23:41:53.244Z,15.10
2022-09-23T23:44:19.822Z,15.10
2022-09-23T23:46:46.515Z,15.00
2022-09-23T23:49:13.182Z,15.10
2022-09-23T23:51:41.055Z,15.00
2022-09-23T23:54:07.865Z,15.00
2022-09-23T23:56:34.567Z,15.00
2022-09-23T23:59:04.945Z,15.00
